createdAt,value
2022-12-14T00:01:30.985Z,100339.16
2022-12-14T00:03:57.577Z,100339.13
2022-12-14T00:06:29.897Z,100324.56
2022-12-14T00:08:59.255Z,100352.00
2022-12-14T00:11:26.805Z,100351.09
2022-12-14T00:13:56.398Z,100345.97
2022-12-14T00:16:24.650Z,100348.53
2022-12-14T00:18:53.777Z,100341.69
2022-12-14T00:21:20.926Z,100331.28
2022-12-14T00:23:50.204Z,100349.31
2022-12-14T00:26:17.961Z,100339.91
2022-12-14T00:28:46.049Z,100339.91
2022-12-14T00:31:13.272Z,100332.13
2022-12-14T00:33:40.026Z,100317.47
2022-12-14T00:36:09.021Z,100327.84
2022-12-14T00:38:35.960Z,100306.28
2022-12-14T00:41:02.992Z,100331.25
2022-12-14T00:43:30.149Z,100334.69
2022-12-14T00:45:56.785Z,100285.75
2022-12-14T00:48:25.289Z,100302.06
2022-12-14T00:50:53.670Z,100325.22
2022-12-14T00:53:20.641Z,100317.47
2022-12-14T00:55:49.382Z,100326.09
2022-12-14T00:58:19.020Z,100322.66
2022-12-14T01:00:46.447Z,100320.09
2022-12-14T01:03:13.578Z,100328.66
2022-12-14T01:05:40.664Z,100321.00
2022-12-14T01:08:07.796Z,100324.38
2022-12-14T01:10:34.940Z,100294.31
2022-12-14T01:13:01.477Z,100289.13
2022-12-14T01:15:27.998Z,100325.25
2022-12-14T01:17:54.617Z,100326.09
2022-12-14T01:20:21.244Z,100297.72
2022-12-14T01:22:47.732Z,100310.59
2022-12-14T01:25:14.277Z,100331.25
2022-12-14T01:27:40.797Z,100319.16
2022-12-14T01:30:07.801Z,100320.00
2022-12-14T01:32:34.828Z,100314.03
2022-12-14T01:35:01.419Z,100334.63
2022-12-14T01:37:28.915Z,100312.31
2022-12-14T01:39:55.675Z,100320.03
2022-12-14T01:42:22.608Z,100320.84
2022-12-14T01:44:52.892Z,100322.59
2022-12-14T01:47:42.435Z,100302.00
2022-12-14T01:50:29.193Z,100335.47
2022-12-14T01:53:01.552Z,100310.56
2022-12-14T01:55:36.614Z,100324.31
2022-12-14T01:58:10.801Z,100295.94
2022-12-14T02:00:38.184Z,100329.47
2022-12-14T02:03:13.632Z,100334.59
2022-12-14T02:05:45.649Z,100316.53
2022-12-14T02:08:13.191Z,100324.22
2022-12-14T02:10:40.197Z,100321.63
2022-12-14T02:13:18.384Z,100312.16
2022-12-14T02:15:46.597Z,100314.81
2022-12-14T02:18:20.213Z,100313.84
2022-12-14T02:21:14.220Z,100335.38
2022-12-14T02:24:07.945Z,100331.09
2022-12-14T02:27:09.805Z,100320.75
2022-12-14T02:29:55.804Z,100336.22
2022-12-14T02:33:05.812Z,100334.50
2022-12-14T02:35:42.480Z,100342.97
2022-12-14T02:38:26.994Z,100331.03
2022-12-14T02:41:11.144Z,100342.13
2022-12-14T02:43:47.473Z,100337.84
2022-12-14T02:46:46.228Z,100322.31
2022-12-14T02:49:49.011Z,100333.56
2022-12-14T02:52:37.520Z,100341.25
2022-12-14T02:55:17.446Z,100331.81
2022-12-14T02:57:52.594Z,100305.22
2022-12-14T03:00:20.131Z,100324.00
2022-12-14T03:02:49.051Z,100330.88
2022-12-14T03:05:15.755Z,100330.00
2022-12-14T03:07:49.411Z,100319.63
2022-12-14T03:10:27.928Z,100325.63
2022-12-14T03:12:59.884Z,100313.56
2022-12-14T03:15:28.427Z,100322.97
2022-12-14T03:17:58.966Z,100294.50
2022-12-14T03:20:28.871Z,100301.44
2022-12-14T03:23:07.843Z,100325.47
2022-12-14T03:26:01.495Z,100335.69
2022-12-14T03:28:39.544Z,100309.03
2022-12-14T03:31:12.153Z,100327.06
2022-12-14T03:33:41.261Z,100309.81
2022-12-14T03:36:25.414Z,100325.34
2022-12-14T03:38:57.730Z,100318.50
2022-12-14T03:41:59.106Z,100327.91
2022-12-14T03:44:45.221Z,100296.03
2022-12-14T03:47:52.299Z,100323.53
2022-12-14T03:50:30.905Z,100312.44
2022-12-14T03:53:10.020Z,100305.53
2022-12-14T03:55:43.961Z,100310.56
2022-12-14T03:58:20.009Z,100312.34
2022-12-14T04:01:16.481Z,100314.88
2022-12-14T04:03:55.321Z,100321.66
2022-12-14T04:06:26.106Z,100276.94
2022-12-14T04:09:08.092Z,100319.88
2022-12-14T04:12:04.121Z,100320.66
2022-12-14T04:14:55.210Z,100303.53
2022-12-14T04:17:47.042Z,100303.38
2022-12-14T04:20:20.390Z,100324.81
2022-12-14T04:22:56.317Z,100323.00
2022-12-14T04:25:49.015Z,100310.88
2022-12-14T04:28:42.117Z,100298.78
2022-12-14T04:31:12.722Z,100334.84
2022-12-14T04:33:48.970Z,100329.69
2022-12-14T04:36:28.263Z,100341.56
2022-12-14T04:39:02.121Z,100328.75
2022-12-14T04:41:34.487Z,100334.63
2022-12-14T04:44:06.635Z,100350.03
2022-12-14T04:46:40.618Z,100338.88
2022-12-14T04:49:11.629Z,100338.75
2022-12-14T04:51:50.557Z,100339.59
2022-12-14T04:54:27.717Z,100343.88
2022-12-14T04:57:05.197Z,100348.97
2022-12-14T04:59:32.237Z,100339.47
2022-12-14T05:02:19.205Z,100345.53
2022-12-14T05:05:11.273Z,100338.63
2022-12-14T05:08:13.447Z,100342.09
2022-12-14T05:10:48.922Z,100327.56
2022-12-14T05:13:20.896Z,100324.09
2022-12-14T05:15:54.024Z,100323.25
2022-12-14T05:18:21.099Z,100293.00
2022-12-14T05:20:48.445Z,100325.81
2022-12-14T05:23:16.295Z,100326.59
2022-12-14T05:25:43.319Z,100329.09
2022-12-14T05:28:11.199Z,100301.50
2022-12-14T05:30:38.199Z,100319.56
2022-12-14T05:33:05.229Z,100308.34
2022-12-14T05:35:31.787Z,100324.66
2022-12-14T05:37:58.421Z,100304.03
2022-12-14T05:40:24.967Z,100324.66
2022-12-14T05:42:55.620Z,100332.31
2022-12-14T05:45:22.459Z,100327.16
2022-12-14T05:47:48.985Z,100313.31
2022-12-14T05:50:15.587Z,100329.56
2022-12-14T05:52:42.064Z,100313.19
2022-12-14T05:55:09.210Z,100342.41
2022-12-14T05:57:35.728Z,100324.25
2022-12-14T06:00:03.545Z,100321.66
2022-12-14T06:02:30.168Z,100342.25
2022-12-14T06:04:56.774Z,100338.75
2022-12-14T06:07:27.781Z,100324.13
2022-12-14T06:09:55.003Z,100332.72
2022-12-14T06:12:21.629Z,100349.06
2022-12-14T06:14:48.116Z,100352.47
2022-12-14T06:17:14.634Z,100341.25
2022-12-14T06:19:41.277Z,100328.22
2022-12-14T06:22:08.010Z,100342.00
2022-12-14T06:24:34.527Z,100340.16
2022-12-14T06:27:01.234Z,100362.56
2022-12-14T06:29:27.908Z,100359.06
2022-12-14T06:31:54.450Z,100370.25
2022-12-14T06:34:24.991Z,100364.16
2022-12-14T06:36:54.942Z,100345.16
2022-12-14T06:39:21.552Z,100365.88
2022-12-14T06:41:52.012Z,100363.25
2022-12-14T06:44:19.094Z,100365.78
2022-12-14T06:46:45.850Z,100359.78
2022-12-14T06:49:14.635Z,100359.66
2022-12-14T06:51:42.257Z,100370.91
2022-12-14T06:54:11.773Z,100367.44
2022-12-14T06:56:38.904Z,100365.59
2022-12-14T06:59:05.539Z,100370.69
2022-12-14T07:01:32.257Z,100375.69
2022-12-14T07:03:59.747Z,100381.78
2022-12-14T07:06:31.403Z,100367.13
2022-12-14T07:09:00.032Z,100382.59
2022-12-14T07:11:28.354Z,100391.13
2022-12-14T07:13:55.862Z,100391.13
2022-12-14T07:16:25.232Z,100382.47
2022-12-14T07:18:53.755Z,100385.97
2022-12-14T07:21:21.438Z,100374.78
2022-12-14T07:23:49.312Z,100372.19
2022-12-14T07:26:18.585Z,100396.22
2022-12-14T07:28:45.745Z,100397.06
2022-12-14T07:31:18.262Z,100373.81
2022-12-14T07:33:45.074Z,100402.97
2022-12-14T07:36:13.158Z,100400.44
2022-12-14T07:38:41.033Z,100404.72
2022-12-14T07:41:17.672Z,100397.84
2022-12-14T07:43:50.107Z,100398.78
2022-12-14T07:46:20.012Z,100392.75
2022-12-14T07:48:48.786Z,100382.28
2022-12-14T07:51:18.460Z,100404.72
2022-12-14T07:53:45.324Z,100382.25
2022-12-14T07:56:16.280Z,100384.03
2022-12-14T07:58:43.216Z,100403.84
2022-12-14T08:01:12.831Z,100405.56
2022-12-14T08:03:41.916Z,100421.81
2022-12-14T08:06:10.106Z,100418.34
2022-12-14T08:08:37.053Z,100397.50
2022-12-14T08:11:04.705Z,100436.25
2022-12-14T08:13:32.157Z,100437.09
2022-12-14T08:16:07.371Z,100432.84
2022-12-14T08:18:34.338Z,100443.03
2022-12-14T08:21:01.983Z,100443.94
2022-12-14T08:23:29.265Z,100426.63
2022-12-14T08:25:57.531Z,100449.03
2022-12-14T08:28:24.848Z,100419.72
2022-12-14T08:30:51.526Z,100463.59
2022-12-14T08:33:19.903Z,100450.78
2022-12-14T08:35:46.593Z,100433.56
2022-12-14T08:38:13.396Z,100457.66
2022-12-14T08:40:40.383Z,100438.72
2022-12-14T08:43:07.558Z,100469.75
2022-12-14T08:45:34.127Z,100441.34
2022-12-14T08:48:00.670Z,100459.47
2022-12-14T08:50:29.311Z,100474.13
2022-12-14T08:52:56.162Z,100478.38
2022-12-14T08:55:28.256Z,100450.97
2022-12-14T08:57:56.968Z,100475.97
2022-12-14T09:00:23.852Z,100469.97
2022-12-14T09:02:51.436Z,100461.38
2022-12-14T09:05:18.624Z,100440.69
2022-12-14T09:07:45.915Z,100482.13
2022-12-14T09:10:13.168Z,100468.47
2022-12-14T09:12:40.127Z,100482.28
2022-12-14T09:15:07.668Z,100485.78
2022-12-14T09:17:34.605Z,100489.19
2022-12-14T09:20:01.157Z,100466.00
2022-12-14T09:22:27.838Z,100493.63
2022-12-14T09:24:54.629Z,100491.91
2022-12-14T09:27:22.501Z,100487.75
2022-12-14T09:29:49.758Z,100493.88
2022-12-14T09:32:17.221Z,100501.69
2022-12-14T09:34:44.016Z,100510.41
2022-12-14T09:37:10.607Z,100488.25
2022-12-14T09:39:37.145Z,100486.63
2022-12-14T09:42:12.150Z,100479.78
2022-12-14T09:45:17.817Z,100510.84
2022-12-14T09:47:49.586Z,100501.38
2022-12-14T09:50:20.273Z,100513.53
2022-12-14T09:52:51.788Z,100495.53
2022-12-14T09:55:26.978Z,100533.50
2022-12-14T09:57:59.170Z,100533.56
2022-12-14T10:00:31.703Z,100506.09
2022-12-14T10:03:14.923Z,100539.84
2022-12-14T10:05:51.669Z,100539.97
2022-12-14T10:08:27.692Z,100521.91
2022-12-14T10:11:30.756Z,100545.34
2022-12-14T10:14:18.685Z,100548.00
2022-12-14T10:17:25.100Z,100549.81
2022-12-14T10:20:00.236Z,100548.25
2022-12-14T10:22:34.565Z,100550.91
2022-12-14T10:25:14.055Z,100545.03
2022-12-14T10:28:10.297Z,100522.78
2022-12-14T10:30:37.669Z,100540.13
2022-12-14T10:33:14.745Z,100530.75
2022-12-14T10:35:47.661Z,100542.88
2022-12-14T10:38:35.668Z,100539.53
2022-12-14T10:41:40.118Z,100537.91
2022-12-14T10:44:12.545Z,100526.03
2022-12-14T10:46:51.782Z,100500.31
2022-12-14T10:49:48.914Z,100519.41
2022-12-14T10:52:22.471Z,100502.16
2022-12-14T10:55:21.240Z,100531.44
2022-12-14T10:57:47.726Z,100525.44
2022-12-14T11:00:23.187Z,100519.56
2022-12-14T11:02:56.495Z,100533.38
2022-12-14T11:05:54.710Z,100502.47
2022-12-14T11:08:49.019Z,100537.88
2022-12-14T11:11:19.594Z,100521.59
2022-12-14T11:13:51.707Z,100515.72
2022-12-14T11:16:28.950Z,100539.03
2022-12-14T11:19:02.649Z,100539.97
2022-12-14T11:21:36.521Z,100542.59
2022-12-14T11:24:04.680Z,100531.34
2022-12-14T11:26:40.142Z,100538.19
2022-12-14T11:29:17.655Z,100527.00
2022-12-14T11:31:50.085Z,100535.50
2022-12-14T11:34:38.967Z,100546.75
2022-12-14T11:37:24.379Z,100533.00
2022-12-14T11:39:53.423Z,100539.91
2022-12-14T11:42:21.638Z,100497.78
2022-12-14T11:44:49.949Z,100550.25
2022-12-14T11:47:28.809Z,100554.59
2022-12-14T11:49:58.143Z,100550.31
2022-12-14T11:52:36.997Z,100555.44
2022-12-14T11:55:13.922Z,100551.97
2022-12-14T11:57:59.076Z,100528.72
2022-12-14T12:00:33.220Z,100550.25
2022-12-14T12:03:03.050Z,100508.09
2022-12-14T12:05:32.678Z,100551.97
2022-12-14T12:08:02.359Z,100536.47
2022-12-14T12:10:42.015Z,100541.69
2022-12-14T12:13:23.630Z,100540.84
2022-12-14T12:15:54.564Z,100545.97
2022-12-14T12:18:27.516Z,100537.41
2022-12-14T12:20:59.430Z,100543.44
2022-12-14T12:23:33.726Z,100525.38
2022-12-14T12:26:06.593Z,100518.50
2022-12-14T12:28:40.025Z,100540.03
2022-12-14T12:31:22.187Z,100534.91
2022-12-14T12:33:58.077Z,100536.59
2022-12-14T12:36:25.622Z,100535.72
2022-12-14T12:38:52.168Z,100551.22
2022-12-14T12:41:31.840Z,100540.03
2022-12-14T12:44:14.300Z,100521.13
2022-12-14T12:47:15.267Z,100555.50
2022-12-14T12:49:39.009Z,100556.34
2022-12-14T12:52:20.831Z,100553.72
2022-12-14T12:55:18.012Z,100536.53
2022-12-14T12:57:53.592Z,100549.41
2022-12-14T13:00:23.000Z,100521.00
2022-12-14T13:02:54.928Z,100562.28
2022-12-14T13:08:34.836Z,100556.19
2022-12-14T13:11:26.591Z,100538.13
2022-12-14T13:13:58.447Z,100561.38
2022-12-14T13:16:37.142Z,100560.53
2022-12-14T13:19:48.770Z,100561.38
2022-12-14T13:22:07.193Z,100557.09
2022-12-14T13:24:36.482Z,100558.69
2022-12-14T13:27:40.875Z,100558.69
2022-12-14T13:30:41.525Z,100562.13
2022-12-14T13:33:43.278Z,100561.25
2022-12-14T13:36:28.542Z,100564.66
2022-12-14T13:38:54.994Z,100567.25
2022-12-14T13:41:46.703Z,100558.63
2022-12-14T13:44:26.553Z,100560.41
2022-12-14T13:47:03.119Z,100552.59
2022-12-14T13:49:31.544Z,100541.41
2022-12-14T13:51:58.462Z,100563.75
2022-12-14T13:54:36.007Z,100572.31
2022-12-14T13:57:09.629Z,100544.78
2022-12-14T13:59:41.371Z,100573.94
2022-12-14T14:02:28.244Z,100558.47
2022-12-14T14:05:27.327Z,100566.97
2022-12-14T14:07:57.796Z,100537.66
2022-12-14T14:10:31.852Z,100559.91
2022-12-14T14:12:59.789Z,100570.25
2022-12-14T14:15:32.006Z,100563.38
2022-12-14T14:18:07.240Z,100579.53
2022-12-14T14:21:13.411Z,100594.09
2022-12-14T14:24:15.739Z,100592.31
2022-12-14T14:26:44.005Z,100595.72
2022-12-14T14:29:28.388Z,100566.38
2022-12-14T14:31:59.742Z,100599.84
2022-12-14T14:34:33.022Z,100606.66
2022-12-14T14:37:00.056Z,100602.22
2022-12-14T14:39:56.619Z,100610.66
2022-12-14T14:42:29.831Z,100614.00
2022-12-14T14:45:08.005Z,100590.56
2022-12-14T14:47:38.424Z,100628.31
2022-12-14T14:50:20.384Z,100625.63
2022-12-14T14:53:10.084Z,100631.50
2022-12-14T14:55:54.148Z,100630.66
2022-12-14T14:58:34.312Z,100635.72
2022-12-14T15:01:20.326Z,100638.34
2022-12-14T15:04:04.418Z,100649.38
2022-12-14T15:06:42.799Z,100621.78
2022-12-14T15:09:09.270Z,100649.34
2022-12-14T15:12:04.364Z,100647.53
2022-12-14T15:14:39.026Z,100666.38
2022-12-14T15:17:19.364Z,100668.13
2022-12-14T15:19:53.624Z,100664.69
2022-12-14T15:22:23.101Z,100673.19
2022-12-14T15:24:53.181Z,100649.88
2022-12-14T15:27:27.300Z,100673.25
2022-12-14T15:30:04.834Z,100649.94
2022-12-14T15:32:32.559Z,100668.88
2022-12-14T15:35:05.490Z,100683.44
2022-12-14T15:37:42.379Z,100669.66
2022-12-14T15:40:16.417Z,100680.78
2022-12-14T15:43:16.800Z,100672.19
2022-12-14T15:45:45.967Z,100683.50
2022-12-14T15:48:24.801Z,100692.91
2022-12-14T15:50:54.458Z,100689.50
2022-12-14T15:53:32.889Z,100685.22
2022-12-14T15:56:08.338Z,100685.25
2022-12-14T15:58:39.880Z,100688.63
2022-12-14T16:01:13.953Z,100658.50
2022-12-14T16:03:44.699Z,100669.72
2022-12-14T16:06:14.298Z,100699.13
2022-12-14T16:08:51.686Z,100686.25
2022-12-14T16:11:31.701Z,100699.16
2022-12-14T16:14:03.225Z,100699.22
2022-12-14T16:16:29.958Z,100696.69
2022-12-14T16:19:13.885Z,100705.34
2022-12-14T16:21:49.617Z,100702.88
2022-12-14T16:24:25.110Z,100686.56
2022-12-14T16:27:00.116Z,100712.38
2022-12-14T16:29:29.337Z,100670.09
2022-12-14T16:32:16.182Z,100691.72
2022-12-14T16:34:59.034Z,100678.88
2022-12-14T16:37:34.032Z,100699.56
2022-12-14T16:40:00.932Z,100669.44
2022-12-14T16:42:31.497Z,100696.28
2022-12-14T16:44:58.065Z,100666.13
2022-12-14T16:47:28.752Z,100683.50
2022-12-14T16:50:00.065Z,100689.63
2022-12-14T16:52:30.360Z,100703.34
2022-12-14T16:55:17.042Z,100698.22
2022-12-14T16:57:49.378Z,100703.44
2022-12-14T17:00:26.040Z,100707.78
2022-12-14T17:02:54.742Z,100704.34
2022-12-14T17:05:23.255Z,100678.50
2022-12-14T17:07:49.951Z,100681.94
2022-12-14T17:10:20.103Z,100715.59
2022-12-14T17:12:47.554Z,100719.00
2022-12-14T17:15:21.218Z,100716.47
2022-12-14T17:17:51.056Z,100708.78
2022-12-14T17:20:24.228Z,100694.19
2022-12-14T17:22:51.396Z,100708.78
2022-12-14T17:25:18.579Z,100720.03
2022-12-14T17:27:45.398Z,100717.50
2022-12-14T17:30:17.646Z,100705.38
2022-12-14T17:32:45.101Z,100722.66
2022-12-14T17:35:32.344Z,100706.25
2022-12-14T17:37:59.514Z,100683.84
2022-12-14T17:40:27.134Z,100726.13
2022-12-14T17:42:56.562Z,100708.94
2022-12-14T17:45:26.009Z,100711.50
2022-12-14T17:47:52.983Z,100684.84
2022-12-14T17:50:19.903Z,100727.88
2022-12-14T17:52:47.343Z,100733.09
2022-12-14T17:55:17.481Z,100729.69
2022-12-14T17:57:44.562Z,100738.28
2022-12-14T18:00:35.151Z,100703.88
2022-12-14T18:03:03.387Z,100700.41
2022-12-14T18:05:31.378Z,100733.19
2022-12-14T18:07:58.352Z,100710.75
2022-12-14T18:10:25.942Z,100746.00
2022-12-14T18:12:52.542Z,100747.81
2022-12-14T18:15:37.401Z,100750.31
2022-12-14T18:18:04.268Z,100750.28
2022-12-14T18:20:31.271Z,100756.38
2022-12-14T18:22:57.861Z,100760.63
2022-12-14T18:25:37.545Z,100730.44
2022-12-14T18:28:07.163Z,100765.81
2022-12-14T18:30:41.824Z,100742.50
2022-12-14T18:33:15.667Z,100775.31
2022-12-14T18:35:43.528Z,100737.44
2022-12-14T18:38:10.074Z,100764.09
2022-12-14T18:40:37.597Z,100775.31
2022-12-14T18:43:04.395Z,100760.72
2022-12-14T18:45:33.983Z,100776.16
2022-12-14T18:48:01.484Z,100746.00
2022-12-14T18:50:28.974Z,100783.09
2022-12-14T18:52:55.838Z,100757.16
2022-12-14T18:55:28.416Z,100757.25
2022-12-14T18:57:57.847Z,100728.78
2022-12-14T19:00:29.379Z,100780.53
2022-12-14T19:03:00.697Z,100752.94
2022-12-14T19:05:28.840Z,100783.13
2022-12-14T19:07:57.745Z,100776.25
2022-12-14T19:10:28.087Z,100775.31
2022-12-14T19:12:55.394Z,100757.16
2022-12-14T19:15:28.914Z,100795.09
2022-12-14T19:17:56.444Z,100782.22
2022-12-14T19:20:24.617Z,100792.50
2022-12-14T19:22:51.578Z,100745.06
2022-12-14T19:25:19.640Z,100790.81
2022-12-14T19:30:34.699Z,100764.84
2022-12-14T19:33:01.435Z,100752.69
2022-12-14T19:35:28.101Z,100774.16
2022-12-14T19:37:54.640Z,100772.38
2022-12-14T19:40:21.383Z,100786.13
2022-12-14T19:42:48.171Z,100765.34
2022-12-14T19:45:15.050Z,100801.56
2022-12-14T19:47:42.579Z,100810.94
2022-12-14T19:50:12.544Z,100794.44
2022-12-14T19:52:39.153Z,100823.72
2022-12-14T19:55:06.143Z,100810.75
2022-12-14T19:57:32.898Z,100812.41
2022-12-14T20:00:00.151Z,100810.56
2022-12-14T20:02:27.207Z,100811.34
2022-12-14T20:04:54.045Z,100800.09
2022-12-14T20:07:20.634Z,100793.16
2022-12-14T20:09:47.195Z,100787.88
2022-12-14T20:12:13.832Z,100814.59
2022-12-14T20:14:40.681Z,100816.31
2022-12-14T20:17:11.173Z,100819.72
2022-12-14T20:19:39.328Z,100823.91
2022-12-14T20:22:07.822Z,100828.94
2022-12-14T20:24:34.584Z,100829.69
2022-12-14T20:27:01.146Z,100808.06
2022-12-14T20:29:27.824Z,100801.09
2022-12-14T20:31:57.227Z,100775.94
2022-12-14T20:34:23.918Z,100822.47
2022-12-14T20:36:50.705Z,100824.03
2022-12-14T20:39:17.409Z,100823.06
2022-12-14T20:41:43.919Z,100809.16
2022-12-14T20:44:14.439Z,100814.22
2022-12-14T20:46:43.515Z,100823.69
2022-12-14T20:49:15.663Z,100826.09
2022-12-14T20:51:43.975Z,100818.31
2022-12-14T20:54:17.019Z,100838.88
2022-12-14T20:56:44.619Z,100847.34
2022-12-14T20:59:16.316Z,100836.91
2022-12-14T21:01:43.389Z,100835.09
2022-12-14T21:04:10.190Z,100837.53
2022-12-14T21:06:39.174Z,100832.22
2022-12-14T21:09:09.394Z,100858.88
2022-12-14T21:12:01.520Z,100862.22
2022-12-14T21:14:31.227Z,100840.50
2022-12-14T21:16:58.591Z,100858.63
2022-12-14T21:19:25.538Z,100853.31
2022-12-14T21:21:54.084Z,100861.06
2022-12-14T21:24:53.066Z,100860.09
2022-12-14T21:27:16.148Z,100854.84
2022-12-14T21:29:43.157Z,100833.94
2022-12-14T21:32:10.225Z,100838.22
2022-12-14T21:34:36.832Z,100855.34
2022-12-14T21:37:03.576Z,100832.88
2022-12-14T21:39:30.319Z,100832.03
2022-12-14T21:42:15.781Z,100840.53
2022-12-14T21:44:45.082Z,100857.59
2022-12-14T21:47:20.709Z,100861.00
2022-12-14T21:49:47.822Z,100872.81
2022-12-14T21:52:26.557Z,100868.44
2022-12-14T21:54:53.144Z,100845.13
2022-12-14T21:57:41.997Z,100861.34
2022-12-14T22:00:10.527Z,100865.59
2022-12-14T22:02:37.388Z,100868.84
2022-12-14T22:05:04.615Z,100853.34
2022-12-14T22:07:33.082Z,100869.63
2022-12-14T22:09:59.837Z,100861.72
2022-12-14T22:12:26.503Z,100829.53
2022-12-14T22:14:53.380Z,100863.16
2022-12-14T22:17:19.928Z,100878.59
2022-12-14T22:19:46.666Z,100856.84
2022-12-14T22:22:17.101Z,100875.72
2022-12-14T22:24:45.090Z,100890.34
2022-12-14T22:27:12.794Z,100863.31
2022-12-14T22:29:40.104Z,100870.38
2022-12-14T22:32:07.689Z,100864.25
2022-12-14T22:34:34.732Z,100862.41
2022-12-14T22:37:01.903Z,100842.59
2022-12-14T22:39:28.911Z,100896.16
2022-12-14T22:41:55.525Z,100874.34
2022-12-14T22:44:22.080Z,100886.28
2022-12-14T22:46:50.045Z,100874.97
2022-12-14T22:49:19.227Z,100899.06
2022-12-14T22:51:46.447Z,100913.69
2022-12-14T22:54:23.728Z,100911.84
2022-12-14T22:57:04.528Z,100896.16
2022-12-14T22:59:49.433Z,100877.88
2022-12-14T23:02:16.243Z,100898.59
2022-12-14T23:04:43.053Z,100912.53
2022-12-14T23:07:09.669Z,100903.84
2022-12-14T23:09:54.933Z,100893.50
2022-12-14T23:12:40.533Z,100903.81
2022-12-14T23:15:25.649Z,100906.31
2022-12-14T23:18:14.119Z,100905.38
2022-12-14T23:20:59.211Z,100905.31
2022-12-14T23:23:44.258Z,100902.47
2022-12-14T23:26:29.798Z,100891.22
2022-12-14T23:29:14.935Z,100916.28
2022-12-14T23:31:59.833Z,100914.47
2022-12-14T23:34:44.908Z,100914.50
2022-12-14T23:37:33.065Z,100898.06
2022-12-14T23:40:18.515Z,100916.94
2022-12-14T23:43:03.683Z,100920.41
2022-12-14T23:45:48.957Z,100917.66
2022-12-14T23:48:34.192Z,100919.19
2022-12-14T23:51:20.288Z,100908.81
2022-12-14T23:54:05.360Z,100921.59
2022-12-14T23:56:50.381Z,100916.13
2022-12-14T23:59:35.676Z,100922.16
